Live Weather Radar

YMHB Hobart METAR

METAR YMHB 261700Z 30007KT 9999 FEW035 03/01 Q1023 RMK RF00.0/000.0

YMHB Hobart Terminal Area Forecast (TAF)

TAF YMHB 261708Z 2618/2718 32008KT 9999 FEW040 RMK T 03 03 08 12 Q 1023 1024 1024 1022